createdAt,value
2018-12-11T00:00:48.347Z,1.8
2018-12-11T00:01:38.639Z,1.8
2018-12-11T00:02:27.877Z,1.8
2018-12-11T00:03:19.059Z,1.8
2018-12-11T00:04:08.831Z,1.8
2018-12-11T00:04:58.866Z,1.8
2018-12-11T00:05:48.926Z,1.8
2018-12-11T00:06:38.985Z,1.8
2018-12-11T00:24:54.088Z,1.8
2018-12-11T00:25:43.308Z,1.8
2018-12-11T00:26:33.641Z,1.8
2018-12-11T00:28:19.710Z,1.8
2018-12-11T00:29:09.762Z,1.9
2018-12-11T00:30:01.080Z,1.9
2018-12-11T00:30:50.597Z,1.9
2018-12-11T00:31:55.158Z,1.9
2018-12-11T04:54:08.434Z,0.4
2018-12-11T04:54:56.988Z,0.4
2018-12-11T04:55:46.795Z,0.4
2018-12-11T04:56:36.797Z,0.4
2018-12-11T04:57:26.575Z,0.3
2018-12-11T04:58:16.638Z,0.3
2018-12-11T04:59:06.939Z,0.3
2018-12-11T04:59:57.035Z,0.3
2018-12-11T05:00:47.039Z,0.2
2018-12-11T05:01:37.135Z,0.3
2018-12-11T05:02:26.910Z,0.2
2018-12-11T05:03:16.962Z,0.2
2018-12-11T05:04:07.317Z,0.1
2018-12-11T05:04:57.079Z,0.1
2018-12-11T05:05:46.865Z,0.2
2018-12-11T05:06:37.229Z,0.2
2018-12-11T05:07:27.035Z,0.2
2018-12-11T05:08:17.359Z,0.3
2018-12-11T05:09:07.069Z,0.3
2018-12-11T05:09:57.657Z,0.4
2018-12-11T05:10:47.487Z,0.4
2018-12-11T05:11:38.059Z,0.4
2018-12-11T05:12:27.584Z,0.4
2018-12-11T05:13:17.657Z,0.3
2018-12-11T05:14:07.426Z,0.3
2018-12-11T05:14:57.072Z,0.3
2018-12-11T05:15:48.097Z,0.4
2018-12-11T05:16:37.929Z,0.4
2018-12-11T05:17:27.166Z,0.4
2018-12-11T05:18:17.783Z,0.3
2018-12-11T05:19:07.571Z,0.4
2018-12-11T05:19:57.624Z,0.4
2018-12-11T05:20:47.966Z,0.4
2018-12-11T05:21:38.489Z,0.4
2018-12-11T05:22:27.791Z,0.3
2018-12-11T05:23:18.133Z,0.4
2018-12-11T05:24:07.918Z,0.4
2018-12-11T05:24:58.236Z,0.4
2018-12-11T05:25:47.996Z,0.4
2018-12-11T05:26:38.422Z,0.4
2018-12-11T05:27:28.426Z,0.4
2018-12-11T05:28:18.191Z,0.3
2018-12-11T05:29:09.073Z,0.4
2018-12-11T05:29:58.309Z,0.3
2018-12-11T05:30:50.158Z,0.4
2018-12-11T05:31:38.631Z,0.4
2018-12-11T05:32:28.489Z,0.4
2018-12-11T05:33:19.076Z,0.4
2018-12-11T05:34:10.376Z,0.4
2018-12-11T05:34:58.376Z,0.4
2018-12-11T05:35:48.438Z,0.4
2018-12-11T05:36:39.295Z,0.4
2018-12-11T05:37:29.572Z,0.4
2018-12-11T05:38:19.365Z,0.4
2018-12-11T05:39:09.415Z,0.4
2018-12-11T05:39:59.190Z,0.4
2018-12-11T05:40:49.807Z,0.4
2018-12-11T05:41:40.128Z,0.4
2018-12-11T05:42:29.160Z,0.4
2018-12-11T05:43:19.432Z,0.4
2018-12-11T05:44:10.037Z,0.4
2018-12-11T05:45:00.396Z,0.4
2018-12-11T05:45:49.867Z,0.4
2018-12-11T05:46:39.981Z,0.4
2018-12-11T05:47:30.259Z,0.4
2018-12-11T05:48:20.327Z,0.3
2018-12-11T05:49:10.369Z,0.3
2018-12-11T05:50:00.472Z,0.3
2018-12-11T05:50:50.207Z,0.3
2018-12-11T05:51:40.597Z,0.3
2018-12-11T05:52:30.612Z,0.2
2018-12-11T05:53:20.677Z,0.2
2018-12-11T05:54:10.721Z,0.2
2018-12-11T05:55:00.016Z,0.2
2018-12-11T05:55:50.554Z,0.3
2018-12-11T05:56:40.351Z,0.2
2018-12-11T05:57:30.477Z,0.2
2018-12-11T05:58:21.006Z,0.2
2018-12-11T05:59:10.781Z,0.2
2018-12-11T06:00:00.844Z,0.1
2018-12-11T06:00:51.194Z,0.2
2018-12-11T06:01:41.485Z,0.3
2018-12-11T06:02:31.033Z,0.3
2018-12-11T06:03:21.345Z,0.3
2018-12-11T06:04:11.442Z,0.3
2018-12-11T06:05:01.460Z,0.3
2018-12-11T06:05:52.067Z,0.3
2018-12-11T06:06:42.451Z,0.3
2018-12-11T06:07:31.341Z,0.3
2018-12-11T06:08:21.198Z,0.3
2018-12-11T06:09:10.984Z,0.3
2018-12-11T06:10:01.319Z,0.3
2018-12-11T06:10:51.683Z,0.3
2018-12-11T06:11:41.218Z,0.2
2018-12-11T06:12:30.478Z,0.2
2018-12-11T06:13:21.066Z,0.2
2018-12-11T06:14:11.332Z,0.2
2018-12-11T06:15:01.656Z,0.2
2018-12-11T06:15:52.498Z,0.2
2018-12-11T06:16:42.050Z,0.1
2018-12-11T06:17:32.311Z,0.2
2018-12-11T06:18:21.807Z,0.2
2018-12-11T06:19:12.409Z,0.2
2018-12-11T06:20:02.485Z,0.2
2018-12-11T06:20:52.260Z,0.2
2018-12-11T06:21:42.844Z,0.3
2018-12-11T06:22:32.664Z,0.3
2018-12-11T06:23:22.729Z,0.3
2018-12-11T06:24:12.494Z,0.3
2018-12-11T06:25:03.387Z,0.3
2018-12-11T06:25:52.874Z,0.4
2018-12-11T06:26:43.179Z,0.4
2018-12-11T06:27:32.993Z,0.4
2018-12-11T06:28:23.049Z,0.4
2018-12-11T06:29:13.099Z,0.4
2018-12-11T06:30:03.256Z,0.4
2018-12-11T06:30:52.666Z,0.4
2018-12-11T06:31:43.244Z,0.4
2018-12-11T06:32:33.328Z,0.4
2018-12-11T06:33:23.418Z,0.5
2018-12-11T06:34:13.448Z,0.5
2018-12-11T06:35:03.035Z,0.6
2018-12-11T06:35:53.275Z,0.6
2018-12-11T06:36:43.608Z,0.6
2018-12-11T06:37:33.675Z,0.6
2018-12-11T06:38:23.446Z,0.6
2018-12-11T06:39:13.498Z,0.6
2018-12-11T06:40:03.898Z,0.6
2018-12-11T06:40:53.628Z,0.7
2018-12-11T06:41:43.956Z,0.6
2018-12-11T06:42:34.010Z,0.7
2018-12-11T06:43:23.512Z,0.8
2018-12-11T06:44:14.197Z,0.8
2018-12-11T06:45:03.690Z,0.8
2018-12-11T06:45:53.967Z,0.8
2018-12-11T06:46:44.027Z,0.8
2018-12-11T06:47:34.605Z,0.8
2018-12-11T06:48:24.414Z,0.8
2018-12-11T06:49:13.892Z,0.9
2018-12-11T06:50:04.528Z,0.9
2018-12-11T06:50:54.014Z,0.9
2018-12-11T06:51:44.641Z,0.9
2018-12-11T06:52:34.661Z,1
2018-12-11T06:53:24.749Z,1
2018-12-11T06:54:14.812Z,1
2018-12-11T06:55:04.867Z,1.1
2018-12-11T06:55:54.361Z,1.1
2018-12-11T06:56:45.039Z,1.1
2018-12-11T06:57:34.561Z,1.2
2018-12-11T06:58:25.081Z,1.2
2018-12-11T06:59:14.921Z,1.2
2018-12-11T07:00:05.179Z,1.2
2018-12-11T07:00:55.311Z,1.3
2018-12-11T07:01:45.363Z,1.3
2018-12-11T07:02:35.681Z,1.3
2018-12-11T07:03:25.201Z,1.4
2018-12-11T07:04:15.287Z,1.5
2018-12-11T07:05:05.278Z,1.4
2018-12-11T07:05:55.691Z,1.5
2018-12-11T07:06:45.716Z,1.5
2018-12-11T07:07:35.748Z,1.6
2018-12-11T07:08:25.498Z,1.5
2018-12-11T07:09:15.548Z,1.5
2018-12-11T07:10:05.923Z,1.4
2018-12-11T07:10:55.968Z,1.5
2018-12-11T07:11:45.835Z,1.6
2018-12-11T07:12:35.803Z,1.6
2018-12-11T07:13:26.089Z,1.7
2018-12-11T07:14:15.898Z,1.8
2018-12-11T07:15:05.685Z,1.8
2018-12-11T07:15:55.730Z,1.8
2018-12-11T07:16:46.247Z,1.8
2018-12-11T07:17:36.127Z,1.8
2018-12-11T07:18:29.294Z,1.8
2018-12-11T07:19:16.237Z,1.8
2018-12-11T07:20:06.026Z,1.9
2018-12-11T07:20:56.389Z,1.9
2018-12-11T07:21:46.411Z,1.9
2018-12-11T07:22:36.729Z,2
2018-12-11T07:23:26.246Z,1.9
2018-12-11T07:24:16.597Z,1.9
2018-12-11T07:25:06.920Z,1.9
2018-12-11T07:25:56.424Z,2
2018-12-11T07:26:46.769Z,2.1
2018-12-11T07:27:37.096Z,2.1
2018-12-11T07:28:26.843Z,2.1
2018-12-11T07:29:17.187Z,2.1
2018-12-11T07:30:07.264Z,2.1
2018-12-11T07:30:57.318Z,2.2
2018-12-11T07:31:47.381Z,2.1
2018-12-11T07:32:37.176Z,2.1
2018-12-11T07:33:27.451Z,2.2
2018-12-11T07:34:16.526Z,2.2
2018-12-11T07:35:07.658Z,2.3
2018-12-11T07:35:57.398Z,2.2
2018-12-11T07:36:47.715Z,2.2
2018-12-11T07:37:37.500Z,2.2
2018-12-11T07:38:27.564Z,2.3
2018-12-11T07:39:17.868Z,2.3
2018-12-11T07:40:07.682Z,2.3
2018-12-11T07:40:57.260Z,2.3
2018-12-11T07:41:47.780Z,2.3
2018-12-11T07:42:38.117Z,2.4
2018-12-11T07:43:27.897Z,2.4
2018-12-11T07:44:18.295Z,2.5
2018-12-11T07:45:08.299Z,2.6
2018-12-11T07:45:58.340Z,2.6
2018-12-11T07:46:48.126Z,2.6
2018-12-11T07:47:38.198Z,2.6
2018-12-11T07:48:28.244Z,2.8
2018-12-11T07:49:18.309Z,2.7
2018-12-11T07:50:08.069Z,2.7
2018-12-11T07:50:58.404Z,2.8
2018-12-11T07:51:48.757Z,2.7
2018-12-11T07:52:38.803Z,2.7
2018-12-11T07:53:28.591Z,2.8
2018-12-11T07:54:18.639Z,2.6
2018-12-11T07:55:08.717Z,2.5
2018-12-11T07:56:02.683Z,2.7
2018-12-11T07:56:48.818Z,2.8
2018-12-11T07:57:38.598Z,2.8
2018-12-11T07:58:28.644Z,2.8
2018-12-11T07:59:19.248Z,2.8
2018-12-11T08:00:09.131Z,2.8
2018-12-11T08:00:59.376Z,2.8
2018-12-11T08:01:49.441Z,2.8
2018-12-11T08:02:39.490Z,2.7
2018-12-11T08:03:29.555Z,2.8
2018-12-11T08:04:19.341Z,2.8
2018-12-11T08:05:08.963Z,2.7
2018-12-11T08:05:59.158Z,2.6
2018-12-11T08:06:49.524Z,2.5
2018-12-11T08:07:39.298Z,2.5
2018-12-11T08:08:29.892Z,2.6
2018-12-11T08:09:19.683Z,2.5
2018-12-11T08:10:10.016Z,2.5
2018-12-11T08:10:59.785Z,2.5
2018-12-11T08:11:50.136Z,2.6
2018-12-11T08:12:39.925Z,2.8
2018-12-11T08:13:29.683Z,2.8
2018-12-11T08:14:20.310Z,2.8
2018-12-11T08:15:11.885Z,2.8
2018-12-11T08:16:00.145Z,2.8
2018-12-11T08:16:50.468Z,2.9
2018-12-11T08:17:40.258Z,3.1
2018-12-11T08:18:30.637Z,2.9
2018-12-11T08:19:20.639Z,2.9
2018-12-11T08:20:10.717Z,3.1
2018-12-11T08:21:00.507Z,3.2
2018-12-11T08:21:50.817Z,3.4
2018-12-11T08:22:40.874Z,3.3
2018-12-11T08:23:30.660Z,3.2
2018-12-11T08:24:20.689Z,3.1
2018-12-11T08:25:11.099Z,3.1
2018-12-11T08:26:00.839Z,3.1
2018-12-11T08:26:50.894Z,3.2
2018-12-11T08:27:40.947Z,3.3
2018-12-11T08:28:30.441Z,3.3
2018-12-11T08:29:21.061Z,3.3
2018-12-11T08:30:11.371Z,3.6
2018-12-11T08:31:01.181Z,3.4
2018-12-11T08:31:51.228Z,3.6
2018-12-11T08:32:41.575Z,3.5
2018-12-11T08:33:31.623Z,3.6
2018-12-11T08:34:20.938Z,3.6
2018-12-11T08:35:11.981Z,3.6
2018-12-11T08:36:02.041Z,3.3
2018-12-11T08:36:51.626Z,3.1
2018-12-11T08:37:41.348Z,3.3
2018-12-11T08:38:31.975Z,3.3
2018-12-11T08:39:21.811Z,3.4
2018-12-11T08:40:11.806Z,3.4
2018-12-11T08:41:02.442Z,3.4
2018-12-11T08:41:51.916Z,3.6
2018-12-11T08:42:41.990Z,3.7
2018-12-11T08:43:32.098Z,3.7
2018-12-11T08:44:22.093Z,3.6
2018-12-11T08:45:12.148Z,3.7
2018-12-11T08:46:02.213Z,3.8
2018-12-11T08:46:52.283Z,3.8
2018-12-11T08:47:42.600Z,3.6
2018-12-11T08:48:32.666Z,3.3
2018-12-11T08:49:22.718Z,3.4
2018-12-11T08:50:12.008Z,3.4
2018-12-11T08:51:02.563Z,3.4
2018-12-11T08:51:52.966Z,3.4
2018-12-11T08:52:42.393Z,3.4
2018-12-11T09:08:32.043Z,4.3
2018-12-11T09:09:22.250Z,4.3
2018-12-11T09:10:13.145Z,4.5
2018-12-11T09:11:01.996Z,4.6
2018-12-11T09:11:51.430Z,4.8
2018-12-11T09:12:41.741Z,4.8
2018-12-11T09:13:47.422Z,4.6
2018-12-11T09:14:22.560Z,4.4
2018-12-11T09:15:12.394Z,4.3
2018-12-11T09:16:02.447Z,4.1
2018-12-11T09:16:52.306Z,4
2018-12-11T09:17:56.972Z,4.5
2018-12-11T09:18:32.839Z,4.3
2018-12-11T09:19:22.186Z,4.1
2018-12-11T09:21:02.303Z,3.9
2018-12-11T09:21:52.644Z,3.7
2018-12-11T09:22:42.145Z,3.6
2018-12-11T09:23:46.913Z,3.4
2018-12-11T09:24:22.839Z,3.4
2018-12-11T09:25:27.461Z,3.4
2018-12-11T09:26:17.314Z,3.6
2018-12-11T09:26:52.997Z,3.4
2018-12-11T09:27:42.976Z,3.3
2018-12-11T09:28:32.856Z,3.4
2018-12-11T14:07:24.839Z,3.1
2018-12-11T14:08:14.489Z,2.9
2018-12-11T14:09:04.387Z,2.9
2018-12-11T14:09:54.899Z,2.9
2018-12-11T14:10:44.358Z,2.9
2018-12-11T14:11:34.424Z,2.8
2018-12-11T14:12:24.731Z,2.8
2018-12-11T14:13:14.811Z,2.8
2018-12-11T14:14:04.591Z,2.8
2018-12-11T14:14:54.629Z,2.8
2018-12-11T14:15:44.419Z,2.8
2018-12-11T14:16:34.766Z,2.8
2018-12-11T14:17:25.127Z,2.8
2018-12-11T14:18:15.231Z,2.7
2018-12-11T14:19:05.193Z,2.6
2018-12-11T14:19:54.996Z,2.6
2018-12-11T14:20:45.318Z,2.5
2018-12-11T14:21:35.118Z,2.5
2018-12-11T14:22:25.422Z,2.4
2018-12-11T14:23:15.224Z,2.3
2018-12-11T14:24:05.284Z,2.3
2018-12-11T14:24:55.608Z,2.3
2018-12-11T14:25:45.116Z,2.3
2018-12-11T14:26:35.733Z,2.3
2018-12-11T14:27:25.241Z,2.2
2018-12-11T14:28:15.848Z,2.2
2018-12-11T14:29:05.961Z,2.1
2018-12-11T14:29:55.970Z,2.1
2018-12-11T14:30:45.840Z,2.1
2018-12-11T14:31:35.525Z,2.1
2018-12-11T14:32:25.590Z,2
2018-12-11T14:33:16.175Z,1.9
2018-12-11T14:34:05.791Z,1.9
2018-12-11T14:34:55.565Z,1.8
2018-12-11T14:35:45.426Z,1.8
2018-12-11T14:36:35.677Z,1.8
2018-12-11T14:37:26.017Z,1.8
2018-12-11T14:38:15.530Z,1.8
2018-12-11T14:39:05.862Z,1.8
2018-12-11T14:39:56.179Z,1.7
2018-12-11T14:40:46.257Z,1.7
2018-12-11T14:41:36.317Z,1.7
2018-12-11T14:42:26.847Z,1.6
2018-12-11T14:43:16.477Z,1.6
2018-12-11T14:44:06.205Z,1.6
2018-12-11T14:44:56.471Z,1.5
2018-12-11T14:45:46.514Z,1.5
2018-12-11T14:46:36.392Z,1.5
2018-12-11T14:47:26.644Z,1.4
2018-12-11T14:48:17.247Z,1.4
2018-12-11T14:49:06.762Z,1.3
2018-12-11T14:49:57.089Z,1.3
2018-12-11T14:50:47.205Z,1.3
2018-12-11T14:51:36.931Z,1.3
2018-12-11T14:52:27.272Z,1.2
2018-12-11T14:53:17.399Z,1.2
2018-12-11T14:54:07.727Z,1.1
2018-12-11T14:54:57.431Z,1.1
2018-12-11T14:55:47.486Z,1.1
2018-12-11T14:56:36.996Z,1.1
2018-12-11T14:57:34.054Z,1
2018-12-11T14:58:17.667Z,1
2018-12-11T14:59:07.164Z,1
2018-12-11T14:59:58.066Z,0.9
2018-12-11T15:00:47.361Z,0.9
2018-12-11T15:01:38.171Z,0.9
2018-12-11T15:02:29.523Z,0.8
2018-12-11T15:03:17.735Z,0.8
2018-12-11T15:04:08.071Z,0.7
2018-12-11T15:04:57.598Z,0.6
2018-12-11T15:05:48.201Z,0.6
2018-12-11T15:06:38.526Z,0.6
2018-12-11T15:07:28.311Z,0.6
2018-12-11T15:08:18.355Z,0.6
2018-12-11T15:09:08.429Z,0.6
2018-12-11T15:09:58.499Z,0.6
2018-12-11T15:10:48.560Z,0.6
2018-12-11T15:11:38.876Z,0.6
2018-12-11T15:12:28.665Z,0.6
2018-12-11T15:13:18.710Z,0.6
2018-12-11T15:14:09.025Z,0.6
2018-12-11T15:14:58.832Z,0.7
2018-12-11T15:15:49.165Z,0.7
2018-12-11T15:16:39.465Z,0.6
2018-12-11T15:17:28.738Z,0.6
2018-12-11T15:18:19.066Z,0.6
2018-12-11T15:19:09.103Z,0.6
2018-12-11T15:19:59.452Z,0.6
2018-12-11T15:20:48.680Z,0.6
2018-12-11T15:21:39.619Z,0.5
2018-12-11T15:22:29.619Z,0.5
2018-12-11T15:23:19.694Z,0.4
2018-12-11T15:24:09.802Z,0.5
2018-12-11T15:24:59.807Z,0.5
2018-12-11T15:25:49.864Z,0.5
2018-12-11T15:26:39.642Z,0.5
2018-12-11T15:27:29.419Z,0.4
2018-12-11T15:28:19.482Z,0.4
2018-12-11T15:29:10.095Z,0.3
2018-12-11T15:30:00.192Z,0.2
2018-12-11T15:30:49.655Z,0.2
2018-12-11T15:31:40.090Z,0.1
2018-12-11T15:32:30.390Z,0.1
2018-12-11T15:33:20.393Z,0
2018-12-11T15:34:09.888Z,0
2018-12-11T15:35:00.278Z,0
2018-12-11T15:35:50.337Z,-0.1
2018-12-11T15:36:40.330Z,0
2018-12-11T15:37:30.398Z,0
2018-12-11T15:38:20.707Z,0
2018-12-11T15:39:10.763Z,0
2018-12-11T15:40:00.593Z,0.1
2018-12-11T15:40:50.915Z,0.1
2018-12-11T15:41:40.980Z,0.1
2018-12-11T15:42:31.020Z,0.1
2018-12-11T15:43:20.527Z,0.1
2018-12-11T15:44:10.867Z,0.1
2018-12-11T15:45:01.225Z,0.1
2018-12-11T15:45:50.982Z,0.1
2018-12-11T15:46:41.042Z,0.1
2018-12-11T15:47:31.382Z,0.1
2018-12-11T15:48:21.426Z,0.1
2018-12-11T15:49:11.657Z,0.1
2018-12-11T15:50:01.393Z,0.1
2018-12-11T15:50:51.324Z,0.1
2018-12-11T15:51:41.111Z,0.1
2018-12-11T15:52:31.421Z,0
2018-12-11T15:53:21.781Z,0
2018-12-11T15:54:12.089Z,0
2018-12-11T15:55:01.885Z,0
2018-12-11T15:55:51.949Z,0
2018-12-11T15:56:41.734Z,0
2018-12-11T15:57:31.809Z,-0.1
2018-12-11T15:58:27.416Z,-0.1
2018-12-11T15:59:12.193Z,-0.1
2018-12-11T16:00:01.409Z,-0.1
2018-12-11T16:00:52.296Z,-0.1
2018-12-11T16:01:41.816Z,-0.1
2018-12-11T16:02:32.196Z,-0.1
2018-12-11T16:03:22.198Z,-0.1
2018-12-11T16:04:12.541Z,-0.1
2018-12-11T16:05:01.789Z,-0.2
2018-12-11T16:05:52.376Z,-0.1
2018-12-11T16:06:42.702Z,-0.1
2018-12-11T16:07:32.501Z,-0.1
2018-12-11T16:08:22.838Z,-0.1
2018-12-11T16:09:12.863Z,-0.1
2018-12-11T16:10:02.666Z,-0.1
2018-12-11T16:10:52.708Z,-0.1
2018-12-11T16:11:42.780Z,-0.2
2018-12-11T16:12:32.850Z,-0.1
2018-12-11T16:13:23.232Z,-0.1
2018-12-11T16:14:13.490Z,-0.1
2018-12-11T16:15:03.372Z,-0.1
2018-12-11T16:15:53.335Z,-0.2
2018-12-11T16:16:43.402Z,-0.1
2018-12-11T16:17:33.193Z,-0.2
2018-12-11T16:18:23.535Z,-0.2
2018-12-11T16:19:13.087Z,-0.2
2018-12-11T16:20:03.383Z,-0.1
2018-12-11T16:20:53.742Z,-0.1
2018-12-11T16:21:43.474Z,-0.1
2018-12-11T16:22:33.256Z,-0.2
2018-12-11T16:23:23.875Z,-0.2
2018-12-11T16:24:13.942Z,-0.3
2018-12-11T16:25:03.727Z,-0.2
2018-12-11T16:25:53.547Z,-0.3
2018-12-11T16:26:44.107Z,-0.2
2018-12-11T16:27:34.152Z,-0.2
2018-12-11T16:28:23.952Z,-0.2
2018-12-11T16:29:14.279Z,-0.2
2018-12-11T16:30:03.802Z,-0.2
2018-12-11T16:30:54.510Z,-0.3
2018-12-11T16:31:44.462Z,-0.3
2018-12-11T16:32:34.514Z,-0.3
2018-12-11T16:33:24.557Z,-0.2
2018-12-11T16:34:13.884Z,-0.3
2018-12-11T16:35:04.221Z,-0.3
2018-12-11T16:35:53.992Z,-0.3
2018-12-11T16:36:44.806Z,-0.3
2018-12-11T16:37:34.402Z,-0.3
2018-12-11T16:38:24.914Z,-0.3
2018-12-11T16:39:14.494Z,-0.2
2018-12-11T16:40:06.723Z,-0.3
2018-12-11T16:40:54.374Z,-0.3
2018-12-11T16:41:44.922Z,-0.3
2018-12-11T16:42:35.209Z,-0.3
2018-12-11T16:43:24.716Z,-0.3
2018-12-11T16:44:14.774Z,-0.4
2018-12-11T16:45:05.387Z,-0.3
2018-12-11T16:45:55.439Z,-0.3
2018-12-11T16:46:45.503Z,-0.3
2018-12-11T16:47:35.558Z,-0.3
2018-12-11T16:48:25.611Z,-0.3
2018-12-11T16:49:15.421Z,-0.4
2018-12-11T16:50:05.751Z,-0.3
2018-12-11T16:50:55.573Z,-0.4
2018-12-11T16:51:45.906Z,-0.4
2018-12-11T16:52:35.911Z,-0.4
2018-12-11T16:53:25.973Z,-0.4
2018-12-11T16:54:16.026Z,-0.4
2018-12-11T16:55:06.088Z,-0.4
2018-12-11T16:55:56.106Z,-0.4
2018-12-11T16:56:45.641Z,-0.4
2018-12-11T16:57:36.016Z,-0.3
2018-12-11T16:58:26.313Z,-0.3
2018-12-11T16:59:16.098Z,-0.2
2018-12-11T17:00:05.876Z,-0.2
2018-12-11T17:00:56.495Z,-0.2
2018-12-11T17:01:46.551Z,-0.2
2018-12-11T17:02:36.333Z,-0.2
2018-12-11T17:03:26.373Z,-0.2
2018-12-11T17:04:16.716Z,-0.2
2018-12-11T17:05:06.772Z,-0.1
2018-12-11T17:05:56.608Z,-0.1
2018-12-11T17:06:46.673Z,0
2018-12-11T17:07:36.973Z,0
2018-12-11T17:08:27.009Z,0
2018-12-11T17:09:16.801Z,0.1
2018-12-11T17:10:07.137Z,0.1
2018-12-11T17:10:57.870Z,0.1
2018-12-11T17:11:46.970Z,0
2018-12-11T17:12:37.307Z,0
2018-12-11T17:13:27.408Z,0
2018-12-11T17:14:17.143Z,0.1
2018-12-11T17:15:06.922Z,0.1
2018-12-11T17:15:57.255Z,0.1
2018-12-11T17:16:47.310Z,0
2018-12-11T17:17:37.387Z,0
2018-12-11T17:18:27.703Z,0
2018-12-11T17:19:17.483Z,0
2018-12-11T17:20:07.558Z,0
2018-12-11T17:20:57.608Z,0
2018-12-11T17:21:50.100Z,0
2018-12-11T17:22:37.740Z,0
2018-12-11T17:23:27.781Z,-0.1
2018-12-11T17:24:17.267Z,-0.1
2018-12-11T17:25:08.198Z,-0.1
2018-12-11T17:25:58.207Z,-0.1
2018-12-11T17:26:49.497Z,-0.1
2018-12-11T17:27:38.362Z,-0.1
2018-12-11T17:28:28.400Z,-0.1
2018-12-11T17:29:25.158Z,-0.1
2018-12-11T17:30:08.240Z,-0.1
2018-12-11T17:30:58.317Z,-0.1
2018-12-11T17:31:48.643Z,-0.1
2018-12-11T17:32:38.734Z,-0.1
2018-12-11T17:33:28.800Z,-0.1
2018-12-11T17:34:18.817Z,-0.1
2018-12-11T17:35:08.862Z,-0.1
2018-12-11T17:35:58.667Z,-0.2
2018-12-11T17:36:48.979Z,-0.2
2018-12-11T17:37:38.757Z,-0.2
2018-12-11T17:38:29.094Z,-0.2
2018-12-11T17:39:18.867Z,-0.2
2018-12-11T17:40:08.934Z,-0.2
2018-12-11T17:40:58.992Z,-0.3
2018-12-11T17:41:49.376Z,-0.3
2018-12-11T17:42:39.616Z,-0.3
2018-12-11T17:43:29.494Z,-0.3
2018-12-11T17:44:19.759Z,-0.4
2018-12-11T17:45:09.555Z,-0.4
2018-12-11T17:45:59.616Z,-0.4
2018-12-11T17:46:49.674Z,-0.3
2018-12-11T17:47:39.731Z,-0.3
2018-12-11T17:48:29.836Z,-0.3
2018-12-11T17:49:19.826Z,-0.3
2018-12-11T17:50:09.634Z,-0.3
2018-12-11T17:51:00.012Z,-0.4
2018-12-11T17:51:49.258Z,-0.4
2018-12-11T17:52:41.159Z,-0.4
2018-12-11T17:53:29.111Z,-0.3
2018-12-11T17:54:19.711Z,-0.3
2018-12-11T17:55:09.763Z,-0.4
2018-12-11T17:55:59.543Z,-0.3
2018-12-11T17:56:49.891Z,-0.3
2018-12-11T17:57:39.973Z,-0.4
2018-12-11T17:58:30.043Z,-0.4
2018-12-11T17:59:19.843Z,-0.4
2018-12-11T18:00:10.141Z,-0.4
2018-12-11T18:01:00.156Z,-0.4
2018-12-11T18:01:49.956Z,-0.3
2018-12-11T18:02:40.288Z,-0.3
2018-12-11T18:03:30.336Z,-0.3
2018-12-11T18:04:20.123Z,-0.3
2018-12-11T18:05:10.661Z,-0.4
2018-12-11T18:23:48.609Z,-0.5
2018-12-11T18:24:38.610Z,-0.5
2018-12-11T18:25:28.722Z,-0.5
2018-12-11T18:26:18.462Z,-0.5
2018-12-11T18:27:08.497Z,-0.5
2018-12-11T18:27:58.847Z,-0.5
2018-12-11T18:28:48.667Z,-0.6
2018-12-11T18:29:38.957Z,-0.6
2018-12-11T18:30:28.717Z,-0.6
2018-12-11T18:31:18.829Z,-0.6
2018-12-11T18:32:09.109Z,-0.6
2018-12-11T18:32:59.180Z,-0.6
2018-12-11T18:33:49.224Z,-0.6
2018-12-11T18:34:39.002Z,-0.6
2018-12-11T18:35:29.424Z,-0.6
2018-12-11T18:36:19.121Z,-0.6
2018-12-11T18:37:09.459Z,-0.6
2018-12-11T18:37:59.512Z,-0.6
2018-12-11T18:38:49.296Z,-0.6
2018-12-11T18:39:39.886Z,-0.7
2018-12-11T18:40:29.984Z,-0.7
2018-12-11T18:41:19.875Z,-0.8
2018-12-11T18:42:09.816Z,-0.8
2018-12-11T18:42:59.593Z,-0.8
2018-12-11T18:43:49.931Z,-0.8
2018-12-11T18:44:39.976Z,-0.8
2018-12-11T18:45:30.014Z,-0.8
2018-12-11T18:46:19.821Z,-0.8
2018-12-11T18:47:09.875Z,-0.8
2018-12-11T18:48:00.205Z,-0.8
2018-12-11T18:48:50.308Z,-0.8
2018-12-11T18:49:40.341Z,-0.8
2018-12-11T18:50:30.643Z,-0.7
2018-12-11T18:51:20.171Z,-0.6
2018-12-11T18:52:10.504Z,-0.6
2018-12-11T18:53:00.280Z,-0.7
2018-12-11T18:53:50.610Z,-0.7
2018-12-11T18:54:40.688Z,-0.6
2018-12-11T18:55:30.457Z,-0.6
2018-12-11T18:56:20.785Z,-0.6
2018-12-11T18:57:10.843Z,-0.7
2018-12-11T18:58:00.685Z,-0.7
2018-12-11T18:58:50.420Z,-0.7
2018-12-11T18:59:41.027Z,-0.8
2018-12-11T19:00:30.870Z,-0.8
2018-12-11T19:01:21.133Z,-0.8
2018-12-11T19:02:10.920Z,-0.6
2018-12-11T19:03:01.308Z,-0.6
2018-12-11T19:03:52.355Z,-0.6
2018-12-11T19:04:40.809Z,-0.6
2018-12-11T19:05:31.400Z,-0.6
2018-12-11T19:06:21.207Z,-0.7
2018-12-11T19:07:11.537Z,-0.6
2018-12-11T19:08:01.320Z,-0.7
2018-12-11T19:08:51.382Z,-0.7
2018-12-11T19:09:41.727Z,-0.7
2018-12-11T19:10:31.552Z,-0.8
2018-12-11T19:11:21.590Z,-0.8
2018-12-11T19:12:11.914Z,-0.8
2018-12-11T19:13:01.386Z,-0.7
2018-12-11T19:13:52.009Z,-0.8
2018-12-11T19:14:41.840Z,-0.8
2018-12-11T19:15:31.836Z,-0.8
2018-12-11T19:16:21.909Z,-0.8
2018-12-11T19:17:12.246Z,-0.8
2018-12-11T19:18:02.014Z,-0.8
2018-12-11T19:18:52.401Z,-0.7
2018-12-11T19:19:42.418Z,-0.7
2018-12-11T19:20:32.483Z,-0.7
2018-12-11T19:21:22.507Z,-0.7
2018-12-11T19:22:12.591Z,-0.8
2018-12-11T19:23:02.372Z,-0.8
2018-12-11T19:23:52.420Z,-0.9
2018-12-11T19:24:42.753Z,-0.8
2018-12-11T19:25:32.540Z,-0.7
2018-12-11T19:26:24.106Z,-0.7
2018-12-11T19:27:12.640Z,-0.7
2018-12-11T19:28:02.969Z,-0.6
2018-12-11T19:28:52.730Z,-0.6
2018-12-11T19:29:43.123Z,-0.7
2018-12-11T19:30:33.182Z,-0.6
2018-12-11T19:31:22.948Z,-0.6
2018-12-11T19:32:13.298Z,-0.6
2018-12-11T19:33:03.060Z,-0.7
2018-12-11T19:33:53.110Z,-0.7
2018-12-11T19:34:43.163Z,-0.7
2018-12-11T19:35:35.860Z,-0.7
2018-12-11T19:36:23.580Z,-0.8
2018-12-11T19:37:13.062Z,-0.8
2018-12-11T19:38:03.411Z,-0.6
2018-12-11T19:38:53.452Z,-0.6
2018-12-11T19:39:43.510Z,-0.7
2018-12-11T19:40:33.567Z,-0.8
2018-12-11T19:41:23.896Z,-0.7
2018-12-11T19:42:13.798Z,-0.7
2018-12-11T19:43:09.994Z,-0.7
2018-12-11T19:43:54.074Z,-0.6
2018-12-11T19:44:43.851Z,-0.6
2018-12-11T19:45:34.190Z,-0.6
2018-12-11T19:46:24.554Z,-0.6
2018-12-11T19:47:13.764Z,-0.7
2018-12-11T19:48:04.369Z,-0.7
2018-12-11T19:48:54.418Z,-0.7
2018-12-11T19:49:44.469Z,-0.7
2018-12-11T19:50:34.540Z,-0.7
2018-12-11T19:51:24.561Z,-0.5
2018-12-11T19:52:14.091Z,-0.5
2018-12-11T19:53:04.148Z,-0.5
2018-12-11T19:53:55.021Z,-0.6
2018-12-11T19:54:44.553Z,-0.6
2018-12-11T19:55:34.895Z,-0.6
2018-12-11T19:56:25.197Z,-0.7
2018-12-11T19:57:14.721Z,-0.8
2018-12-11T19:58:04.510Z,-0.8
2018-12-11T19:58:54.823Z,-0.7
2018-12-11T19:59:44.895Z,-0.7
2018-12-11T20:00:35.478Z,-0.7
2018-12-11T20:01:25.282Z,-0.6
2018-12-11T20:02:15.069Z,-0.6
2018-12-11T20:03:11.080Z,-0.7
2018-12-11T20:03:55.198Z,-0.6
2018-12-11T20:04:45.510Z,-0.6
2018-12-11T20:05:35.572Z,-0.6
2018-12-11T20:06:24.580Z,-0.6
2018-12-11T20:07:15.692Z,-0.6
2018-12-11T20:08:05.179Z,-0.7
2018-12-11T20:08:55.260Z,-0.7
2018-12-11T20:09:45.857Z,-0.7
2018-12-11T20:10:35.927Z,-0.8
2018-12-11T20:11:25.710Z,-0.8
2018-12-11T20:12:15.764Z,-0.8
2018-12-11T20:13:05.893Z,-0.8
2018-12-11T20:13:56.154Z,-0.8
2018-12-11T20:14:45.924Z,-0.7
2018-12-11T20:15:36.604Z,-0.6
2018-12-11T20:16:26.060Z,-0.7
2018-12-11T20:17:16.379Z,-0.7
2018-12-11T20:18:12.695Z,-0.8
2018-12-11T20:18:56.496Z,-0.6
2018-12-11T20:19:46.274Z,-0.7
2018-12-11T20:20:36.388Z,-0.7
2018-12-11T20:21:26.160Z,-0.7
2018-12-11T20:22:16.158Z,-0.7
2018-12-11T20:23:06.776Z,-0.7
2018-12-11T20:23:56.573Z,-0.8
2018-12-11T20:24:46.912Z,-0.7
2018-12-11T20:25:36.947Z,-0.8
2018-12-11T20:26:27.040Z,-0.8
2018-12-11T20:27:16.780Z,-0.9
2018-12-11T20:28:06.854Z,-0.8
2018-12-11T20:28:56.898Z,-0.8
2018-12-11T20:29:47.497Z,-0.8
2018-12-11T20:30:37.012Z,-0.8
2018-12-11T20:31:27.343Z,-0.8
2018-12-11T20:32:17.424Z,-0.8
2018-12-11T20:33:07.192Z,-0.9
2018-12-11T20:33:57.242Z,-0.9
2018-12-11T20:35:37.091Z,-0.9
2018-12-11T20:36:26.592Z,-0.9
2018-12-11T20:37:17.437Z,-0.9
2018-12-11T20:38:06.982Z,-0.9
2018-12-11T20:39:47.429Z,-1
2018-12-11T20:40:38.026Z,-0.9
2018-12-11T20:41:28.031Z,-0.8
2018-12-11T20:42:17.806Z,-0.8
2018-12-11T20:43:08.147Z,-0.8
2018-12-11T20:43:58.199Z,-0.9
2018-12-11T20:44:48.039Z,-0.8
2018-12-11T20:45:38.049Z,-0.8
2018-12-11T20:46:27.564Z,-0.9
2018-12-11T20:47:18.444Z,-0.9
2018-12-11T20:48:08.219Z,-0.8
2018-12-11T20:48:58.270Z,-0.8
2018-12-11T20:49:48.337Z,-0.9
2018-12-11T20:50:38.403Z,-0.9
2018-12-11T20:51:28.168Z,-0.9
2018-12-11T20:54:49.008Z,-0.9
2018-12-11T20:55:39.018Z,-0.9
2018-12-11T20:56:28.840Z,-0.9
2018-12-11T20:58:08.903Z,-1
2018-12-11T20:58:59.040Z,-1
2018-12-11T20:59:48.738Z,-1.1
2018-12-11T21:00:39.070Z,-1.1
2018-12-11T21:01:29.403Z,-1.1
2018-12-11T21:02:19.735Z,-1.2
2018-12-11T21:03:09.633Z,-1.2
2018-12-11T21:03:59.585Z,-1.2
2018-12-11T21:04:49.373Z,-1.2
2018-12-11T21:05:39.703Z,-1.2
2018-12-11T21:06:29.482Z,-1.3
2018-12-11T21:07:19.297Z,-1.3
2018-12-11T21:08:09.864Z,-1.3
2018-12-11T21:08:59.727Z,-1.2
2018-12-11T21:09:50.290Z,-1.2
2018-12-11T21:10:40.047Z,-1.2
2018-12-11T21:11:29.826Z,-1.3
2018-12-11T21:12:20.207Z,-1.3
2018-12-11T21:13:10.209Z,-1.3
2018-12-11T21:14:00.262Z,-1.3
2018-12-11T21:14:50.054Z,-1.3
2018-12-11T21:15:40.377Z,-1.2
2018-12-11T21:16:30.427Z,-1.3
2018-12-11T21:17:20.497Z,-1.3
2018-12-11T21:18:10.561Z,-1.3
2018-12-11T21:19:00.624Z,-1.3